Decoded Metar for LFOE (EVREUX in FRANCE) (IATA:N/A) | Meteo·Mobile Aviation Weather
aviador You're here:

LFOE Decoded Metar

EVREUX in FRANCE
Report Time2018-11-12 21:30:00
UTC Time2018-11-12 22:06:11
Flight Rules ifr IFR
Wind190° at 09 kt
W.Decomp.*RWY 22: 7.9 kt HW 4.4 kt LCW
W.Rank190° ranks 8
Current wind is above 190° avg. (8.5)
Visibility9999 m
Phenomena:N/A
Clouds:N/A
Expected CloudBase > 800 ft AGL from Temp-Dew spread
Ceiling800 ft
Temp10°C (ISA -4)
Dew Point08°C (88% RH)
AAT6.3°C
QNH1018 hPa
Density Alt-26 ft
Elevation479 ft
Report Wrong Elevation
Raw Report
METAR LFOE 122130Z AUTO 19009KT CAVOK 10/08 Q1018 TEMPO BKN008=

Extra information for LFOE:More info

Metar Taf Metar & Taf Last 4 Metars F.Rules Stats Wind Profile Meteogram Temp Stats Airport Information Weather charts Add Link Nearby VenuesMetar ALERT Operation Metar Decoded Social comments